Oxford, NC

11:50 AM EDT on April 23, 2017 (GMT -0400)
Henderson-Oxford

Weather History for KHNZ - March, 2013

Change the Weather History Date:

Wednesday, March 20, 2013

  Actual Average (KTDF) Record (KTDF)
Temperature  
Mean Temperature 46 °F -  
Max Temperature 54 °F 60 °F 84 °F (1968)
Min Temperature 38 °F 36 °F 19 °F (1993)
Degree Days  
Heating Degree Days 19    
Moisture  
Dew Point 9 °F    
Average Humidity 23    
Maximum Humidity 50    
Minimum Humidity 12    
Precipitation  
Precipitation 0.00 in - - ()
Sea Level Pressure  
Sea Level Pressure 29.96 in    
Wind  
Wind Speed 6 mph (WSW)    
Max Wind Speed 16 mph    
Max Gust Speed 18 mph    
Visibility 10 miles    
Events      
Averages and records for this station are not official NWS values.
T = Trace of Precipitation, MM = Missing Value Source: NWS Daily Summary

Daily Weather History Graph

Daily Weather History Graph

Search for Another Location

Airport or City:

Trip Planner

Search our weather history database for the weather conditions in past years. The results will help you decide how hot, cold, wet, or windy it might be!

Date:

Astronomy

Mar. 20, 2013 Rise Set
Actual Time 7:17 AM EDT 7:26 PM EDT
Civil Twilight 6:51 AM EDT 7:51 PM EDT
Nautical Twilight 6:21 AM EDT 8:21 PM EDT
Astronomical Twilight 5:51 AM EDT 8:52 PM EDT
Moon 1:08 PM EDT (3/20) 2:46 AM EDT (3/20)
Length of Visible Light 13h 00m
Length of Day
12h 08m
First Quarter, 59% of the Moon is Illuminated
Mar 20
First Quarter
Mar 27
Full
Apr 3
Last Quarter
Apr 10
New
Apr 18
First Quarter

Hourly Weather History & Observations

Time (EDT) Temp. Windchill Dew Point Humidity Pressure Visibility Wind Dir Wind Speed Gust Speed Precip Events Conditions
12:15 AM 49.3 °F - -2.6 °F 12% 30.02 in 10.0 mi NW 9.2 mph 16.1 mph N/A   Clear
12:35 AM 48.6 °F - -2.4 °F 12% 30.02 in 10.0 mi NW 9.2 mph 16.1 mph N/A   Clear
12:55 AM 47.8 °F - -2.9 °F 12% 30.02 in 10.0 mi WNW 4.6 mph - N/A   Clear
1:35 AM 46.2 °F 42.7 °F -1.5 °F 14% 30.02 in 10.0 mi WNW 6.9 mph - N/A   Clear
1:55 AM 45.5 °F 43.2 °F -0.4 °F 15% 30.02 in 10.0 mi NW 4.6 mph - N/A   Clear
2:15 AM 44.6 °F - 1.6 °F 17% 30.02 in 10.0 mi Calm Calm - N/A   Clear
2:35 AM 43.9 °F 41.3 °F 2.5 °F 18% 30.02 in 10.0 mi NW 4.6 mph - N/A   Clear
2:55 AM 43.7 °F 40.3 °F 2.1 °F 18% 30.02 in 10.0 mi NW 5.8 mph - N/A   Clear
3:15 AM 43.0 °F 38.8 °F 1.9 °F 18% 30.02 in 10.0 mi WNW 6.9 mph - N/A   Clear
3:35 AM 42.8 °F 40.1 °F 1.2 °F 18% 30.02 in 10.0 mi WNW 4.6 mph - N/A   Clear
3:55 AM 42.8 °F 38.6 °F 0.5 °F 17% 30.01 in 10.0 mi NW 6.9 mph - N/A   Clear
4:15 AM 41.9 °F 36.9 °F 1.8 °F 19% 30.01 in 10.0 mi NW 8.1 mph - N/A   Clear
4:35 AM 41.9 °F 36.9 °F 1.8 °F 19% 30.01 in 10.0 mi NW 8.1 mph - N/A   Clear
4:55 AM 41.7 °F 35.6 °F 1.9 °F 19% 30.01 in 10.0 mi NW 10.4 mph - N/A   Clear
5:15 AM 41.5 °F 36.4 °F 3.0 °F 20% 30.01 in 10.0 mi NW 8.1 mph - N/A   Clear
5:35 AM 41.0 °F 38.0 °F 3.4 °F 21% 30.02 in 10.0 mi NW 4.6 mph - N/A   Clear
5:55 AM 40.6 °F 36.7 °F 3.6 °F 21% 30.02 in 10.0 mi NW 5.8 mph - N/A   Clear
6:15 AM 40.5 °F 36.5 °F 4.1 °F 22% 30.03 in 10.0 mi NW 5.8 mph - N/A   Clear
6:35 AM 40.8 °F 37.8 °F 3.9 °F 22% 30.03 in 10.0 mi NW 4.6 mph - N/A   Clear
6:55 AM 39.6 °F 34.7 °F 5.9 °F 25% 30.04 in 10.0 mi NW 6.9 mph - N/A   Clear
7:15 AM 39.6 °F 37.4 °F 5.9 °F 25% 30.04 in 10.0 mi WNW 3.5 mph - N/A   Clear
7:35 AM 38.8 °F - 6.6 °F 26% 30.05 in 10.0 mi Calm Calm - N/A   Clear
7:55 AM 39.4 °F - 8.2 °F 28% 30.06 in 10.0 mi Calm Calm - N/A   Clear
8:15 AM 39.6 °F - 7.7 °F 27% 30.07 in 10.0 mi Calm Calm - N/A   Clear
8:35 AM 40.1 °F - 8.8 °F 28% 30.07 in 10.0 mi Calm Calm - N/A   Clear
8:55 AM 41.2 °F 39.2 °F 7.5 °F 25% 30.08 in 10.0 mi NW 3.5 mph - N/A   Clear
9:15 AM 41.5 °F 39.6 °F 8.6 °F 26% 30.09 in 10.0 mi WNW 3.5 mph - N/A   Clear
9:35 AM 43.7 °F 41.1 °F 8.8 °F 24% 30.09 in 10.0 mi NW 4.6 mph - N/A   Clear
9:55 AM 43.5 °F 40.9 °F 7.7 °F 23% 30.09 in 10.0 mi NW 4.6 mph - N/A   Scattered Clouds
10:15 AM 43.3 °F 40.7 °F 8.2 °F 24% 30.09 in 10.0 mi North 4.6 mph - N/A   Clear
10:35 AM 44.2 °F 41.8 °F 8.8 °F 24% 30.09 in 10.0 mi WNW 4.6 mph - N/A   Clear
10:55 AM 44.8 °F 41.6 °F 9.5 °F 24% 30.09 in 10.0 mi West 5.8 mph - N/A   Clear
11:15 AM 46.4 °F 43.5 °F 9.9 °F 23% 30.08 in 10.0 mi NW 5.8 mph - N/A   Clear
11:35 AM 46.4 °F 43.5 °F 7.3 °F 20% 30.08 in 10.0 mi WNW 5.8 mph - N/A   Clear
11:55 AM 47.5 °F - 8.8 °F 21% 30.07 in 10.0 mi West 6.9 mph - N/A   Clear
12:15 PM 48.4 °F - 7.5 °F 19% 30.06 in 10.0 mi West 6.9 mph - N/A   Clear
12:35 PM 48.7 °F - 10.4 °F 21% 30.05 in 10.0 mi West 8.1 mph - N/A   Clear
12:55 PM 49.5 °F - 10.2 °F 21% 30.04 in 10.0 mi West 4.6 mph - N/A   Clear
1:15 PM 49.1 °F - 9.9 °F 21% 30.03 in 10.0 mi WSW 6.9 mph - N/A   Clear
1:55 PM 50.9 °F - 10.0 °F 19% 30.00 in 10.0 mi South 9.2 mph - N/A   Clear
2:15 PM 51.6 °F - 10.4 °F 19% 29.98 in 10.0 mi SW 9.2 mph 16.1 mph N/A   Clear
2:35 PM 50.9 °F - 9.1 °F 19% 29.97 in 10.0 mi SW 11.5 mph 17.3 mph N/A   Clear
2:55 PM 52.3 °F - 9.9 °F 18% 29.95 in 10.0 mi SSW 8.1 mph 16.1 mph N/A   Clear
3:15 PM 52.5 °F - 10.2 °F 18% 29.94 in 10.0 mi SSW 6.9 mph - N/A   Clear
3:35 PM 52.7 °F - 10.6 °F 19% 29.92 in 10.0 mi SW 16.1 mph - N/A   Clear
3:55 PM 52.7 °F - 11.5 °F 19% 29.90 in 10.0 mi SSW 15.0 mph 18.4 mph N/A   Clear
4:15 PM 54.3 °F - 10.6 °F 18% 29.89 in 10.0 mi WSW 8.1 mph - N/A   Clear
4:35 PM 54.3 °F - 7.0 °F 15% 29.88 in 10.0 mi WSW 9.2 mph - N/A   Clear
4:55 PM 54.3 °F - 10.4 °F 17% 29.87 in 10.0 mi WSW 9.2 mph - N/A   Clear
5:15 PM 54.0 °F - 11.1 °F 18% 29.86 in 10.0 mi SSW 9.2 mph - N/A   Clear
5:35 PM 54.1 °F - 9.1 °F 17% 29.85 in 10.0 mi SSW 6.9 mph - N/A   Clear
5:55 PM 54.1 °F - 8.1 °F 16% 29.84 in 10.0 mi SW 6.9 mph - N/A   Clear
6:15 PM 53.6 °F - 9.9 °F 17% 29.84 in 10.0 mi SW 8.1 mph - N/A   Clear
6:35 PM 52.9 °F - 12.0 °F 20% 29.85 in 10.0 mi SW 8.1 mph - N/A   Clear
6:55 PM 51.8 °F - 9.3 °F 18% 29.85 in 10.0 mi SW 6.9 mph - N/A   Clear
7:15 PM 48.7 °F - 12.9 °F 24% 29.85 in 10.0 mi SSW 8.1 mph - N/A   Clear
7:35 PM 46.9 °F - 13.1 °F 26% 29.84 in 10.0 mi SSW 5.8 mph - N/A   Clear
7:55 PM 47.3 °F - 11.7 °F 24% 29.83 in 10.0 mi South 3.5 mph - N/A   Clear
8:15 PM 45.1 °F 42.8 °F 14.0 °F 29% 29.83 in 10.0 mi South 4.6 mph - N/A   Scattered Clouds
8:35 PM 45.7 °F 42.7 °F 14.4 °F 28% 29.82 in 10.0 mi South 5.8 mph - N/A   Clear
8:55 PM 44.8 °F 43.3 °F 15.4 °F 31% 29.82 in 10.0 mi South 3.5 mph - N/A   Clear
9:15 PM 43.2 °F 40.5 °F 17.2 °F 35% 29.82 in 10.0 mi South 4.6 mph - N/A   Clear
9:35 PM 41.4 °F 37.6 °F 19.2 °F 41% 29.82 in 10.0 mi South 5.8 mph - N/A   Clear
9:55 PM 41.0 °F 37.1 °F 19.2 °F 42% 29.81 in 10.0 mi South 5.8 mph - N/A   Clear
10:15 PM 39.4 °F 35.2 °F 19.6 °F 45% 29.81 in 10.0 mi SSW 5.8 mph - N/A   Clear
10:35 PM 41.5 °F 38.6 °F 17.8 °F 38% 29.81 in 10.0 mi SW 4.6 mph - N/A   Clear
10:55 PM 40.3 °F 37.1 °F 19.8 °F 44% 29.81 in 10.0 mi SSW 4.6 mph - N/A   Clear
11:15 PM 39.0 °F 35.7 °F 21.6 °F 50% 29.80 in 10.0 mi SSE 4.6 mph - N/A   Clear
11:35 PM 39.4 °F 37.2 °F 19.2 °F 44% 29.79 in 10.0 mi SSW 3.5 mph - N/A   Clear
11:55 PM 40.3 °F 38.2 °F 17.8 °F 40% 29.79 in 10.0 mi SSW 3.5 mph - N/A   Clear